sensor_id;sensor_type;location;lat;lon;timestamp;P1;durP1;ratioP1;P2;durP2;ratioP2
69150;SDS011;56257;52.196;13.870;2022-08-21T00:01:34;10.63;;;7.30;;
69150;SDS011;56257;52.196;13.870;2022-08-21T00:04:07;10.80;;;7.30;;
69150;SDS011;56257;52.196;13.870;2022-08-21T00:06:35;10.35;;;7.63;;
69150;SDS011;56257;52.196;13.870;2022-08-21T00:09:03;10.10;;;7.50;;
69150;SDS011;56257;52.196;13.870;2022-08-21T00:11:32;10.20;;;7.25;;
69150;SDS011;56257;52.196;13.870;2022-08-21T00:14:01;10.93;;;6.93;;
69150;SDS011;56257;52.196;13.870;2022-08-21T00:16:29;11.60;;;7.00;;
69150;SDS011;56257;52.196;13.870;2022-08-21T00:18:56;12.77;;;7.15;;
69150;SDS011;56257;52.196;13.870;2022-08-21T00:21:22;10.23;;;7.10;;
69150;SDS011;56257;52.196;13.870;2022-08-21T00:23:49;11.00;;;6.70;;
69150;SDS011;56257;52.196;13.870;2022-08-21T00:26:16;11.60;;;6.50;;
69150;SDS011;56257;52.196;13.870;2022-08-21T00:28:42;11.90;;;6.97;;
69150;SDS011;56257;52.196;13.870;2022-08-21T00:31:12;10.43;;;6.75;;
69150;SDS011;56257;52.196;13.870;2022-08-21T00:33:38;11.43;;;6.60;;
69150;SDS011;56257;52.196;13.870;2022-08-21T00:36:05;10.27;;;6.50;;
69150;SDS011;56257;52.196;13.870;2022-08-21T00:38:32;8.93;;;6.23;;
69150;SDS011;56257;52.196;13.870;2022-08-21T00:41:00;9.95;;;6.53;;
69150;SDS011;56257;52.196;13.870;2022-08-21T00:43:51;10.02;;;6.38;;
69150;SDS011;56257;52.196;13.870;2022-08-21T00:46:17;9.25;;;5.78;;
69150;SDS011;56257;52.196;13.870;2022-08-21T00:48:44;9.05;;;6.38;;
69150;SDS011;56257;52.196;13.870;2022-08-21T00:51:19;9.83;;;6.40;;
69150;SDS011;56257;52.196;13.870;2022-08-21T00:53:50;10.00;;;6.00;;
69150;SDS011;56257;52.196;13.870;2022-08-21T00:56:19;10.48;;;6.55;;
69150;SDS011;56257;52.196;13.870;2022-08-21T00:58:47;8.35;;;5.68;;
69150;SDS011;56257;52.196;13.870;2022-08-21T01:01:20;9.90;;;5.70;;
69150;SDS011;56257;52.196;13.870;2022-08-21T01:03:47;9.03;;;5.90;;
69150;SDS011;56257;52.196;13.870;2022-08-21T01:06:15;9.35;;;5.65;;
69150;SDS011;56257;52.196;13.870;2022-08-21T01:08:42;9.10;;;6.00;;
69150;SDS011;56257;52.196;13.870;2022-08-21T01:11:12;10.23;;;5.75;;
69150;SDS011;56257;52.196;13.870;2022-08-21T01:13:42;8.95;;;5.95;;
69150;SDS011;56257;52.196;13.870;2022-08-21T01:16:13;7.97;;;5.37;;
69150;SDS011;56257;52.196;13.870;2022-08-21T01:18:43;8.15;;;5.30;;
69150;SDS011;56257;52.196;13.870;2022-08-21T01:21:14;8.80;;;5.55;;
69150;SDS011;56257;52.196;13.870;2022-08-21T01:23:45;9.15;;;5.50;;
69150;SDS011;56257;52.196;13.870;2022-08-21T01:26:14;8.57;;;5.47;;
69150;SDS011;56257;52.196;13.870;2022-08-21T01:28:47;7.97;;;5.37;;
69150;SDS011;56257;52.196;13.870;2022-08-21T01:31:20;8.30;;;5.65;;
69150;SDS011;56257;52.196;13.870;2022-08-21T01:33:51;7.75;;;5.43;;
69150;SDS011;56257;52.196;13.870;2022-08-21T01:36:18;8.77;;;5.45;;
69150;SDS011;56257;52.196;13.870;2022-08-21T01:38:45;8.77;;;5.22;;
69150;SDS011;56257;52.196;13.870;2022-08-21T01:41:14;9.73;;;5.47;;
69150;SDS011;56257;52.196;13.870;2022-08-21T01:43:41;8.68;;;5.50;;
69150;SDS011;56257;52.196;13.870;2022-08-21T01:46:09;8.27;;;5.40;;
69150;SDS011;56257;52.196;13.870;2022-08-21T01:48:36;7.03;;;4.72;;
69150;SDS011;56257;52.196;13.870;2022-08-21T01:51:03;8.68;;;5.50;;
69150;SDS011;56257;52.196;13.870;2022-08-21T01:53:30;8.23;;;5.23;;
69150;SDS011;56257;52.196;13.870;2022-08-21T01:56:00;8.50;;;5.57;;
69150;SDS011;56257;52.196;13.870;2022-08-21T01:58:26;8.93;;;4.97;;
69150;SDS011;56257;52.196;13.870;2022-08-21T02:00:53;8.05;;;5.10;;
69150;SDS011;56257;52.196;13.870;2022-08-21T02:03:20;6.93;;;5.00;;
69150;SDS011;56257;52.196;13.870;2022-08-21T02:06:01;7.10;;;4.60;;
69150;SDS011;56257;52.196;13.870;2022-08-21T02:08:28;9.18;;;5.05;;
69150;SDS011;56257;52.196;13.870;2022-08-21T02:10:55;10.15;;;5.32;;
69150;SDS011;56257;52.196;13.870;2022-08-21T02:13:22;8.93;;;5.13;;
69150;SDS011;56257;52.196;13.870;2022-08-21T02:15:48;9.15;;;5.65;;
69150;SDS011;56257;52.196;13.870;2022-08-21T02:18:15;8.13;;;4.73;;
69150;SDS011;56257;52.196;13.870;2022-08-21T02:20:44;9.05;;;5.10;;
69150;SDS011;56257;52.196;13.870;2022-08-21T02:23:12;7.22;;;4.63;;
69150;SDS011;56257;52.196;13.870;2022-08-21T02:25:39;6.43;;;4.47;;
69150;SDS011;56257;52.196;13.870;2022-08-21T02:28:11;6.97;;;4.38;;
69150;SDS011;56257;52.196;13.870;2022-08-21T02:30:43;8.10;;;4.90;;
69150;SDS011;56257;52.196;13.870;2022-08-21T02:33:11;9.32;;;4.57;;
69150;SDS011;56257;52.196;13.870;2022-08-21T02:35:39;8.40;;;4.47;;
69150;SDS011;56257;52.196;13.870;2022-08-21T02:38:12;7.03;;;4.63;;
69150;SDS011;56257;52.196;13.870;2022-08-21T02:40:44;7.10;;;4.32;;
69150;SDS011;56257;52.196;13.870;2022-08-21T02:43:16;8.40;;;4.73;;
69150;SDS011;56257;52.196;13.870;2022-08-21T02:45:44;6.43;;;4.53;;
69150;SDS011;56257;52.196;13.870;2022-08-21T02:48:12;7.53;;;4.97;;
69150;SDS011;56257;52.196;13.870;2022-08-21T02:50:41;9.00;;;5.10;;
69150;SDS011;56257;52.196;13.870;2022-08-21T02:53:12;9.82;;;5.40;;
69150;SDS011;56257;52.196;13.870;2022-08-21T02:55:43;9.00;;;4.83;;
69150;SDS011;56257;52.196;13.870;2022-08-21T02:58:11;7.93;;;5.32;;
69150;SDS011;56257;52.196;13.870;2022-08-21T03:00:38;7.47;;;4.63;;
69150;SDS011;56257;52.196;13.870;2022-08-21T03:03:05;7.80;;;5.05;;
69150;SDS011;56257;52.196;13.870;2022-08-21T03:05:33;6.60;;;4.57;;
69150;SDS011;56257;52.196;13.870;2022-08-21T03:08:01;7.87;;;4.57;;
69150;SDS011;56257;52.196;13.870;2022-08-21T03:10:29;8.38;;;4.55;;
69150;SDS011;56257;52.196;13.870;2022-08-21T03:12:57;7.13;;;4.60;;
69150;SDS011;56257;52.196;13.870;2022-08-21T03:15:24;7.82;;;4.43;;
69150;SDS011;56257;52.196;13.870;2022-08-21T03:17:51;6.30;;;4.50;;
69150;SDS011;56257;52.196;13.870;2022-08-21T03:20:22;6.43;;;4.03;;
69150;SDS011;56257;52.196;13.870;2022-08-21T03:22:51;7.28;;;4.57;;
69150;SDS011;56257;52.196;13.870;2022-08-21T03:25:19;6.95;;;4.35;;
69150;SDS011;56257;52.196;13.870;2022-08-21T03:27:59;7.03;;;4.03;;
69150;SDS011;56257;52.196;13.870;2022-08-21T03:30:26;5.93;;;4.00;;
69150;SDS011;56257;52.196;13.870;2022-08-21T03:32:53;6.63;;;3.97;;
69150;SDS011;56257;52.196;13.870;2022-08-21T03:35:20;6.70;;;4.30;;
69150;SDS011;56257;52.196;13.870;2022-08-21T03:37:47;6.22;;;4.32;;
69150;SDS011;56257;52.196;13.870;2022-08-21T03:40:15;7.18;;;4.18;;
69150;SDS011;56257;52.196;13.870;2022-08-21T03:42:44;6.95;;;4.20;;
69150;SDS011;56257;52.196;13.870;2022-08-21T03:45:13;5.67;;;3.87;;
69150;SDS011;56257;52.196;13.870;2022-08-21T03:47:53;6.78;;;3.65;;
69150;SDS011;56257;52.196;13.870;2022-08-21T03:50:23;6.68;;;3.83;;
69150;SDS011;56257;52.196;13.870;2022-08-21T03:52:50;9.15;;;4.10;;
69150;SDS011;56257;52.196;13.870;2022-08-21T03:55:17;6.15;;;4.07;;
69150;SDS011;56257;52.196;13.870;2022-08-21T03:57:44;7.10;;;4.00;;
69150;SDS011;56257;52.196;13.870;2022-08-21T04:00:11;5.72;;;3.72;;
69150;SDS011;56257;52.196;13.870;2022-08-21T04:02:39;6.65;;;4.22;;
69150;SDS011;56257;52.196;13.870;2022-08-21T04:05:07;7.65;;;3.70;;
69150;SDS011;56257;52.196;13.870;2022-08-21T04:07:33;7.10;;;3.78;;
69150;SDS011;56257;52.196;13.870;2022-08-21T04:10:00;6.33;;;3.63;;
69150;SDS011;56257;52.196;13.870;2022-08-21T04:12:27;7.38;;;3.80;;
69150;SDS011;56257;52.196;13.870;2022-08-21T04:14:53;6.18;;;3.90;;
69150;SDS011;56257;52.196;13.870;2022-08-21T04:17:20;6.63;;;3.95;;
69150;SDS011;56257;52.196;13.870;2022-08-21T04:19:47;7.05;;;3.63;;
69150;SDS011;56257;52.196;13.870;2022-08-21T04:22:19;6.37;;;3.53;;
69150;SDS011;56257;52.196;13.870;2022-08-21T04:24:45;5.70;;;3.40;;
69150;SDS011;56257;52.196;13.870;2022-08-21T04:27:12;6.18;;;3.92;;
69150;SDS011;56257;52.196;13.870;2022-08-21T04:29:38;10.45;;;4.13;;
69150;SDS011;56257;52.196;13.870;2022-08-21T04:32:05;6.38;;;3.78;;
69150;SDS011;56257;52.196;13.870;2022-08-21T04:34:32;9.03;;;3.63;;
69150;SDS011;56257;52.196;13.870;2022-08-21T04:36:59;5.53;;;3.28;;
69150;SDS011;56257;52.196;13.870;2022-08-21T04:39:25;6.90;;;3.88;;
69150;SDS011;56257;52.196;13.870;2022-08-21T04:41:55;5.85;;;3.20;;
69150;SDS011;56257;52.196;13.870;2022-08-21T04:44:21;5.60;;;3.88;;
69150;SDS011;56257;52.196;13.870;2022-08-21T04:46:48;6.20;;;3.03;;
69150;SDS011;56257;52.196;13.870;2022-08-21T04:49:15;5.63;;;3.20;;
69150;SDS011;56257;52.196;13.870;2022-08-21T04:51:41;6.57;;;4.30;;
69150;SDS011;56257;52.196;13.870;2022-08-21T04:56:42;6.78;;;3.05;;
69150;SDS011;56257;52.196;13.870;2022-08-21T04:59:24;6.03;;;3.00;;
69150;SDS011;56257;52.196;13.870;2022-08-21T05:01:53;6.72;;;3.20;;
69150;SDS011;56257;52.196;13.870;2022-08-21T05:04:23;6.15;;;3.53;;
69150;SDS011;56257;52.196;13.870;2022-08-21T05:06:52;5.88;;;3.10;;
69150;SDS011;56257;52.196;13.870;2022-08-21T05:09:21;6.47;;;2.90;;
69150;SDS011;56257;52.196;13.870;2022-08-21T05:11:48;5.13;;;3.03;;
69150;SDS011;56257;52.196;13.870;2022-08-21T05:14:15;4.50;;;2.83;;
69150;SDS011;56257;52.196;13.870;2022-08-21T05:16:42;4.78;;;2.83;;
69150;SDS011;56257;52.196;13.870;2022-08-21T05:19:10;6.35;;;3.05;;
69150;SDS011;56257;52.196;13.870;2022-08-21T05:21:39;5.25;;;3.20;;
69150;SDS011;56257;52.196;13.870;2022-08-21T05:24:07;5.60;;;2.90;;
69150;SDS011;56257;52.196;13.870;2022-08-21T05:26:34;6.18;;;3.03;;
69150;SDS011;56257;52.196;13.870;2022-08-21T05:29:11;5.45;;;3.28;;
69150;SDS011;56257;52.196;13.870;2022-08-21T05:31:38;7.25;;;3.15;;
69150;SDS011;56257;52.196;13.870;2022-08-21T05:34:05;6.28;;;3.72;;
69150;SDS011;56257;52.196;13.870;2022-08-21T05:36:32;6.10;;;2.90;;
69150;SDS011;56257;52.196;13.870;2022-08-21T05:38:59;5.60;;;3.00;;
69150;SDS011;56257;52.196;13.870;2022-08-21T05:41:26;7.00;;;2.97;;
69150;SDS011;56257;52.196;13.870;2022-08-21T05:43:52;6.10;;;2.90;;
69150;SDS011;56257;52.196;13.870;2022-08-21T05:46:19;6.80;;;3.13;;
69150;SDS011;56257;52.196;13.870;2022-08-21T05:48:46;5.50;;;3.37;;
69150;SDS011;56257;52.196;13.870;2022-08-21T05:51:13;4.53;;;2.72;;
69150;SDS011;56257;52.196;13.870;2022-08-21T05:53:41;6.45;;;3.30;;
69150;SDS011;56257;52.196;13.870;2022-08-21T05:56:09;4.57;;;2.70;;
69150;SDS011;56257;52.196;13.870;2022-08-21T05:58:36;5.65;;;3.08;;
69150;SDS011;56257;52.196;13.870;2022-08-21T06:01:03;5.43;;;2.77;;
69150;SDS011;56257;52.196;13.870;2022-08-21T06:03:33;5.28;;;2.90;;
69150;SDS011;56257;52.196;13.870;2022-08-21T06:06:01;4.20;;;2.75;;
69150;SDS011;56257;52.196;13.870;2022-08-21T06:08:28;4.80;;;2.88;;
69150;SDS011;56257;52.196;13.870;2022-08-21T06:10:56;6.80;;;3.10;;
69150;SDS011;56257;52.196;13.870;2022-08-21T06:13:24;5.60;;;2.70;;
69150;SDS011;56257;52.196;13.870;2022-08-21T06:16:00;6.82;;;3.00;;
69150;SDS011;56257;52.196;13.870;2022-08-21T06:18:28;7.07;;;3.10;;
69150;SDS011;56257;52.196;13.870;2022-08-21T06:20:55;4.85;;;2.88;;
69150;SDS011;56257;52.196;13.870;2022-08-21T06:23:23;6.60;;;2.90;;
69150;SDS011;56257;52.196;13.870;2022-08-21T06:25:58;5.70;;;2.90;;
69150;SDS011;56257;52.196;13.870;2022-08-21T06:28:26;6.78;;;3.30;;
69150;SDS011;56257;52.196;13.870;2022-08-21T06:30:52;6.00;;;3.40;;
69150;SDS011;56257;52.196;13.870;2022-08-21T06:33:19;6.50;;;2.97;;
69150;SDS011;56257;52.196;13.870;2022-08-21T06:35:46;5.18;;;3.00;;
69150;SDS011;56257;52.196;13.870;2022-08-21T06:38:13;5.87;;;2.93;;
69150;SDS011;56257;52.196;13.870;2022-08-21T06:40:39;5.65;;;2.88;;
69150;SDS011;56257;52.196;13.870;2022-08-21T06:43:11;8.70;;;3.15;;
69150;SDS011;56257;52.196;13.870;2022-08-21T06:45:40;6.18;;;2.92;;
69150;SDS011;56257;52.196;13.870;2022-08-21T06:48:07;7.93;;;3.00;;
69150;SDS011;56257;52.196;13.870;2022-08-21T06:50:34;7.73;;;2.97;;
69150;SDS011;56257;52.196;13.870;2022-08-21T06:53:06;6.00;;;2.83;;
69150;SDS011;56257;52.196;13.870;2022-08-21T06:55:35;8.13;;;3.10;;
69150;SDS011;56257;52.196;13.870;2022-08-21T06:58:03;5.38;;;2.75;;
69150;SDS011;56257;52.196;13.870;2022-08-21T07:00:31;6.05;;;2.97;;
69150;SDS011;56257;52.196;13.870;2022-08-21T07:02:58;6.07;;;3.00;;
69150;SDS011;56257;52.196;13.870;2022-08-21T07:05:26;5.50;;;2.67;;
69150;SDS011;56257;52.196;13.870;2022-08-21T07:07:53;6.35;;;2.72;;
69150;SDS011;56257;52.196;13.870;2022-08-21T07:10:20;5.55;;;2.90;;
69150;SDS011;56257;52.196;13.870;2022-08-21T07:12:48;8.45;;;2.65;;
69150;SDS011;56257;52.196;13.870;2022-08-21T07:15:17;5.67;;;2.67;;
69150;SDS011;56257;52.196;13.870;2022-08-21T07:17:44;5.45;;;2.88;;
69150;SDS011;56257;52.196;13.870;2022-08-21T07:20:11;6.82;;;3.03;;
69150;SDS011;56257;52.196;13.870;2022-08-21T07:22:38;7.15;;;2.90;;
69150;SDS011;56257;52.196;13.870;2022-08-21T07:25:05;7.53;;;2.63;;
69150;SDS011;56257;52.196;13.870;2022-08-21T07:27:33;4.43;;;2.33;;
69150;SDS011;56257;52.196;13.870;2022-08-21T07:29:59;5.68;;;2.28;;
69150;SDS011;56257;52.196;13.870;2022-08-21T07:32:26;8.80;;;2.80;;
69150;SDS011;56257;52.196;13.870;2022-08-21T07:34:53;6.80;;;2.90;;
69150;SDS011;56257;52.196;13.870;2022-08-21T07:37:19;5.40;;;2.67;;
69150;SDS011;56257;52.196;13.870;2022-08-21T07:39:46;7.00;;;2.60;;
69150;SDS011;56257;52.196;13.870;2022-08-21T07:42:15;8.63;;;2.70;;
69150;SDS011;56257;52.196;13.870;2022-08-21T07:44:42;6.00;;;2.60;;
69150;SDS011;56257;52.196;13.870;2022-08-21T07:47:09;6.25;;;2.10;;
69150;SDS011;56257;52.196;13.870;2022-08-21T07:49:35;6.95;;;2.53;;
69150;SDS011;56257;52.196;13.870;2022-08-21T07:52:02;5.33;;;2.40;;
69150;SDS011;56257;52.196;13.870;2022-08-21T07:54:29;6.15;;;2.22;;
69150;SDS011;56257;52.196;13.870;2022-08-21T07:57:00;6.65;;;2.40;;
69150;SDS011;56257;52.196;13.870;2022-08-21T07:59:27;6.60;;;2.60;;
69150;SDS011;56257;52.196;13.870;2022-08-21T08:01:54;5.78;;;2.55;;
69150;SDS011;56257;52.196;13.870;2022-08-21T08:04:20;6.40;;;2.10;;
69150;SDS011;56257;52.196;13.870;2022-08-21T08:06:51;8.05;;;2.10;;
69150;SDS011;56257;52.196;13.870;2022-08-21T08:09:18;6.50;;;2.30;;
69150;SDS011;56257;52.196;13.870;2022-08-21T08:11:45;5.55;;;2.10;;
69150;SDS011;56257;52.196;13.870;2022-08-21T08:14:12;6.63;;;2.60;;
69150;SDS011;56257;52.196;13.870;2022-08-21T08:16:39;5.10;;;2.20;;
69150;SDS011;56257;52.196;13.870;2022-08-21T08:19:05;4.85;;;2.08;;
69150;SDS011;56257;52.196;13.870;2022-08-21T08:21:32;6.75;;;2.63;;
69150;SDS011;56257;52.196;13.870;2022-08-21T08:24:00;7.68;;;2.58;;
69150;SDS011;56257;52.196;13.870;2022-08-21T08:26:44;6.25;;;2.53;;
69150;SDS011;56257;52.196;13.870;2022-08-21T08:29:18;5.47;;;2.20;;
69150;SDS011;56257;52.196;13.870;2022-08-21T08:31:45;7.85;;;2.00;;
69150;SDS011;56257;52.196;13.870;2022-08-21T08:34:12;5.55;;;1.95;;
69150;SDS011;56257;52.196;13.870;2022-08-21T08:36:50;7.15;;;2.22;;
69150;SDS011;56257;52.196;13.870;2022-08-21T08:39:17;4.70;;;2.00;;
69150;SDS011;56257;52.196;13.870;2022-08-21T08:41:56;6.00;;;2.00;;
69150;SDS011;56257;52.196;13.870;2022-08-21T08:45:07;6.55;;;2.17;;
69150;SDS011;56257;52.196;13.870;2022-08-21T08:47:49;7.07;;;2.30;;
69150;SDS011;56257;52.196;13.870;2022-08-21T08:50:33;5.88;;;1.80;;
69150;SDS011;56257;52.196;13.870;2022-08-21T08:53:28;5.22;;;1.92;;
69150;SDS011;56257;52.196;13.870;2022-08-21T08:55:58;5.13;;;1.87;;
69150;SDS011;56257;52.196;13.870;2022-08-21T08:58:28;5.07;;;2.00;;
69150;SDS011;56257;52.196;13.870;2022-08-21T09:00:57;5.45;;;2.10;;
69150;SDS011;56257;52.196;13.870;2022-08-21T09:03:25;6.32;;;1.92;;
69150;SDS011;56257;52.196;13.870;2022-08-21T09:14:32;4.47;;;1.80;;
69150;SDS011;56257;52.196;13.870;2022-08-21T09:17:54;6.18;;;1.50;;
69150;SDS011;56257;52.196;13.870;2022-08-21T09:26:19;5.95;;;1.50;;
69150;SDS011;56257;52.196;13.870;2022-08-21T09:28:51;5.32;;;1.83;;
69150;SDS011;56257;52.196;13.870;2022-08-21T09:31:28;5.43;;;1.80;;
69150;SDS011;56257;52.196;13.870;2022-08-21T09:34:03;5.28;;;1.67;;
69150;SDS011;56257;52.196;13.870;2022-08-21T09:39:07;6.65;;;1.83;;
69150;SDS011;56257;52.196;13.870;2022-08-21T09:41:34;4.82;;;1.80;;
69150;SDS011;56257;52.196;13.870;2022-08-21T09:44:03;4.97;;;1.58;;
69150;SDS011;56257;52.196;13.870;2022-08-21T09:46:30;5.30;;;1.63;;
69150;SDS011;56257;52.196;13.870;2022-08-21T09:48:59;8.33;;;2.30;;
69150;SDS011;56257;52.196;13.870;2022-08-21T09:51:34;5.28;;;1.45;;
69150;SDS011;56257;52.196;13.870;2022-08-21T09:56:34;5.43;;;1.65;;
69150;SDS011;56257;52.196;13.870;2022-08-21T09:59:44;7.93;;;1.70;;
69150;SDS011;56257;52.196;13.870;2022-08-21T10:02:26;5.30;;;1.73;;
69150;SDS011;56257;52.196;13.870;2022-08-21T10:05:07;7.70;;;1.80;;
69150;SDS011;56257;52.196;13.870;2022-08-21T10:07:41;6.32;;;1.80;;
69150;SDS011;56257;52.196;13.870;2022-08-21T10:10:14;9.52;;;1.50;;
69150;SDS011;56257;52.196;13.870;2022-08-21T10:18:19;5.05;;;1.48;;
69150;SDS011;56257;52.196;13.870;2022-08-21T10:23:47;4.63;;;1.17;;
69150;SDS011;56257;52.196;13.870;2022-08-21T10:32:29;6.20;;;1.63;;
69150;SDS011;56257;52.196;13.870;2022-08-21T10:41:06;3.58;;;1.40;;
69150;SDS011;56257;52.196;13.870;2022-08-21T10:46:52;6.72;;;1.50;;
69150;SDS011;56257;52.196;13.870;2022-08-21T10:49:42;5.35;;;1.73;;
69150;SDS011;56257;52.196;13.870;2022-08-21T10:55:08;5.55;;;1.65;;
69150;SDS011;56257;52.196;13.870;2022-08-21T11:00:45;4.10;;;1.40;;
69150;SDS011;56257;52.196;13.870;2022-08-21T11:03:16;4.45;;;1.67;;
69150;SDS011;56257;52.196;13.870;2022-08-21T11:11:04;4.03;;;1.30;;
69150;SDS011;56257;52.196;13.870;2022-08-21T11:13:37;4.50;;;1.42;;
69150;SDS011;56257;52.196;13.870;2022-08-21T11:16:16;4.40;;;1.80;;
69150;SDS011;56257;52.196;13.870;2022-08-21T11:18:55;5.68;;;1.58;;
69150;SDS011;56257;52.196;13.870;2022-08-21T11:21:29;4.93;;;1.73;;
69150;SDS011;56257;52.196;13.870;2022-08-21T11:27:06;5.18;;;1.50;;
69150;SDS011;56257;52.196;13.870;2022-08-21T11:29:41;5.47;;;1.55;;
69150;SDS011;56257;52.196;13.870;2022-08-21T11:34:54;4.28;;;1.52;;
69150;SDS011;56257;52.196;13.870;2022-08-21T11:43:12;7.88;;;1.80;;
69150;SDS011;56257;52.196;13.870;2022-08-21T11:45:50;6.32;;;1.95;;
69150;SDS011;56257;52.196;13.870;2022-08-21T11:50:51;4.30;;;1.40;;
69150;SDS011;56257;52.196;13.870;2022-08-21T11:53:24;4.45;;;1.83;;
69150;SDS011;56257;52.196;13.870;2022-08-21T11:55:58;6.78;;;1.83;;
69150;SDS011;56257;52.196;13.870;2022-08-21T11:58:39;6.55;;;1.75;;
69150;SDS011;56257;52.196;13.870;2022-08-21T12:01:08;6.55;;;1.83;;
69150;SDS011;56257;52.196;13.870;2022-08-21T12:03:38;5.20;;;1.60;;
69150;SDS011;56257;52.196;13.870;2022-08-21T12:06:09;5.63;;;2.15;;
69150;SDS011;56257;52.196;13.870;2022-08-21T12:08:39;6.78;;;1.75;;
69150;SDS011;56257;52.196;13.870;2022-08-21T12:11:22;6.22;;;2.00;;
69150;SDS011;56257;52.196;13.870;2022-08-21T12:14:00;6.68;;;1.58;;
69150;SDS011;56257;52.196;13.870;2022-08-21T12:16:40;5.83;;;1.77;;
69150;SDS011;56257;52.196;13.870;2022-08-21T12:19:11;10.35;;;1.75;;
69150;SDS011;56257;52.196;13.870;2022-08-21T12:21:51;5.57;;;1.95;;
69150;SDS011;56257;52.196;13.870;2022-08-21T12:26:55;5.22;;;1.58;;
69150;SDS011;56257;52.196;13.870;2022-08-21T12:31:54;7.45;;;1.80;;
69150;SDS011;56257;52.196;13.870;2022-08-21T12:34:24;9.98;;;1.83;;
69150;SDS011;56257;52.196;13.870;2022-08-21T12:36:58;10.73;;;1.65;;
69150;SDS011;56257;52.196;13.870;2022-08-21T12:39:29;49.50;;;16.15;;
69150;SDS011;56257;52.196;13.870;2022-08-21T12:42:17;86.20;;;31.47;;
69150;SDS011;56257;52.196;13.870;2022-08-21T12:44:49;319.67;;;106.03;;
69150;SDS011;56257;52.196;13.870;2022-08-21T12:47:32;378.38;;;128.50;;
69150;SDS011;56257;52.196;13.870;2022-08-21T12:50:09;393.17;;;134.65;;
69150;SDS011;56257;52.196;13.870;2022-08-21T12:52:44;369.08;;;128.02;;
69150;SDS011;56257;52.196;13.870;2022-08-21T12:55:25;502.17;;;191.07;;
69150;SDS011;56257;52.196;13.870;2022-08-21T12:57:53;418.02;;;148.38;;
69150;SDS011;56257;52.196;13.870;2022-08-21T13:00:21;355.55;;;126.97;;
69150;SDS011;56257;52.196;13.870;2022-08-21T13:02:51;318.38;;;109.38;;
69150;SDS011;56257;52.196;13.870;2022-08-21T13:05:32;256.00;;;90.82;;
69150;SDS011;56257;52.196;13.870;2022-08-21T13:08:10;248.00;;;83.17;;
69150;SDS011;56257;52.196;13.870;2022-08-21T13:10:39;233.23;;;78.72;;
69150;SDS011;56257;52.196;13.870;2022-08-21T13:13:07;199.77;;;68.53;;
69150;SDS011;56257;52.196;13.870;2022-08-21T13:15:39;188.27;;;67.10;;
69150;SDS011;56257;52.196;13.870;2022-08-21T13:18:23;182.75;;;67.22;;
69150;SDS011;56257;52.196;13.870;2022-08-21T13:20:52;173.80;;;58.63;;
69150;SDS011;56257;52.196;13.870;2022-08-21T13:23:29;149.35;;;52.08;;
69150;SDS011;56257;52.196;13.870;2022-08-21T13:25:57;130.60;;;47.17;;
69150;SDS011;56257;52.196;13.870;2022-08-21T13:28:25;117.97;;;43.25;;
69150;SDS011;56257;52.196;13.870;2022-08-21T13:30:59;96.00;;;35.33;;
69150;SDS011;56257;52.196;13.870;2022-08-21T13:33:27;77.17;;;29.17;;
69150;SDS011;56257;52.196;13.870;2022-08-21T13:36:10;62.53;;;26.35;;
69150;SDS011;56257;52.196;13.870;2022-08-21T13:38:40;57.95;;;24.15;;
69150;SDS011;56257;52.196;13.870;2022-08-21T13:41:29;59.40;;;24.77;;
69150;SDS011;56257;52.196;13.870;2022-08-21T13:43:58;58.00;;;22.73;;
69150;SDS011;56257;52.196;13.870;2022-08-21T13:46:31;44.47;;;18.60;;
69150;SDS011;56257;52.196;13.870;2022-08-21T13:49:00;45.83;;;19.38;;
69150;SDS011;56257;52.196;13.870;2022-08-21T13:51:29;46.58;;;17.48;;
69150;SDS011;56257;52.196;13.870;2022-08-21T13:53:57;39.67;;;17.42;;
69150;SDS011;56257;52.196;13.870;2022-08-21T13:56:29;39.42;;;17.92;;
69150;SDS011;56257;52.196;13.870;2022-08-21T13:59:08;29.23;;;11.73;;
69150;SDS011;56257;52.196;13.870;2022-08-21T14:01:36;26.50;;;11.32;;
69150;SDS011;56257;52.196;13.870;2022-08-21T14:04:16;24.27;;;10.77;;
69150;SDS011;56257;52.196;13.870;2022-08-21T14:06:45;23.02;;;9.23;;
69150;SDS011;56257;52.196;13.870;2022-08-21T14:12:02;15.40;;;6.87;;
69150;SDS011;56257;52.196;13.870;2022-08-21T14:14:48;16.25;;;6.28;;
69150;SDS011;56257;52.196;13.870;2022-08-21T14:17:25;15.82;;;6.13;;
69150;SDS011;56257;52.196;13.870;2022-08-21T14:19:59;12.65;;;5.50;;
69150;SDS011;56257;52.196;13.870;2022-08-21T14:22:30;11.25;;;5.35;;
69150;SDS011;56257;52.196;13.870;2022-08-21T14:27:33;13.23;;;4.53;;
69150;SDS011;56257;52.196;13.870;2022-08-21T14:30:03;11.77;;;4.88;;
69150;SDS011;56257;52.196;13.870;2022-08-21T14:32:40;9.23;;;3.78;;
69150;SDS011;56257;52.196;13.870;2022-08-21T14:35:11;9.18;;;3.95;;
69150;SDS011;56257;52.196;13.870;2022-08-21T14:37:41;8.93;;;3.47;;
69150;SDS011;56257;52.196;13.870;2022-08-21T14:40:09;7.85;;;3.20;;
69150;SDS011;56257;52.196;13.870;2022-08-21T14:42:41;8.38;;;2.88;;
69150;SDS011;56257;52.196;13.870;2022-08-21T14:45:27;7.22;;;3.10;;
69150;SDS011;56257;52.196;13.870;2022-08-21T14:47:55;6.25;;;2.42;;
69150;SDS011;56257;52.196;13.870;2022-08-21T14:50:22;6.77;;;2.43;;
69150;SDS011;56257;52.196;13.870;2022-08-21T14:52:53;6.57;;;2.33;;
69150;SDS011;56257;52.196;13.870;2022-08-21T14:55:19;7.65;;;2.33;;
69150;SDS011;56257;52.196;13.870;2022-08-21T14:57:47;6.57;;;2.30;;
69150;SDS011;56257;52.196;13.870;2022-08-21T15:00:16;11.40;;;2.45;;
69150;SDS011;56257;52.196;13.870;2022-08-21T15:02:45;7.33;;;1.97;;
69150;SDS011;56257;52.196;13.870;2022-08-21T15:05:14;5.88;;;2.08;;
69150;SDS011;56257;52.196;13.870;2022-08-21T15:07:51;8.10;;;2.13;;
69150;SDS011;56257;52.196;13.870;2022-08-21T15:10:18;5.65;;;2.10;;
69150;SDS011;56257;52.196;13.870;2022-08-21T15:12:44;6.28;;;2.10;;
69150;SDS011;56257;52.196;13.870;2022-08-21T15:15:11;6.17;;;2.03;;
69150;SDS011;56257;52.196;13.870;2022-08-21T15:17:42;5.25;;;1.83;;
69150;SDS011;56257;52.196;13.870;2022-08-21T15:20:13;6.30;;;1.98;;
69150;SDS011;56257;52.196;13.870;2022-08-21T15:22:40;9.23;;;2.17;;
69150;SDS011;56257;52.196;13.870;2022-08-21T15:25:13;6.45;;;1.77;;
69150;SDS011;56257;52.196;13.870;2022-08-21T15:27:39;7.63;;;2.40;;
69150;SDS011;56257;52.196;13.870;2022-08-21T15:30:06;4.95;;;2.17;;
69150;SDS011;56257;52.196;13.870;2022-08-21T15:32:33;4.95;;;2.10;;
69150;SDS011;56257;52.196;13.870;2022-08-21T15:35:00;4.45;;;1.80;;
69150;SDS011;56257;52.196;13.870;2022-08-21T15:37:28;4.68;;;2.13;;
69150;SDS011;56257;52.196;13.870;2022-08-21T15:39:55;5.10;;;2.10;;
69150;SDS011;56257;52.196;13.870;2022-08-21T15:42:22;9.85;;;4.32;;
69150;SDS011;56257;52.196;13.870;2022-08-21T15:44:49;6.35;;;2.78;;
69150;SDS011;56257;52.196;13.870;2022-08-21T15:47:17;7.05;;;3.40;;
69150;SDS011;56257;52.196;13.870;2022-08-21T15:49:45;7.72;;;3.47;;
69150;SDS011;56257;52.196;13.870;2022-08-21T15:52:16;9.97;;;3.57;;
69150;SDS011;56257;52.196;13.870;2022-08-21T15:54:44;8.25;;;3.22;;
69150;SDS011;56257;52.196;13.870;2022-08-21T15:57:12;9.70;;;3.80;;
69150;SDS011;56257;52.196;13.870;2022-08-21T15:59:41;10.05;;;3.60;;
69150;SDS011;56257;52.196;13.870;2022-08-21T16:02:12;7.43;;;3.28;;
69150;SDS011;56257;52.196;13.870;2022-08-21T16:04:40;8.60;;;2.60;;
69150;SDS011;56257;52.196;13.870;2022-08-21T16:07:07;7.47;;;3.03;;
69150;SDS011;56257;52.196;13.870;2022-08-21T16:09:35;9.43;;;2.92;;
69150;SDS011;56257;52.196;13.870;2022-08-21T16:12:02;7.65;;;2.50;;